KMVL/MVL METAR and TAF weather

Enter ICAO airport designator
Station Type Date Time Source
KMVL METAR 2020/08/12 17:54 UTC NOAA

KMVL 121754Z AUTO 35007KT 290V010 10SM CLR 28/18 A3005 RMK AO2 SLP174 T02830178 10283 20206 53001


Station Type Date Time Source
KMVL Decoded METAR 2020/08/12 17:54 UTC NOAA

MORRISVILLE STOWE STATE AIRPORT , VT, United States (KMVL) 44-32N 72-37W 223M
Aug 12, 2020 - 01:54 PM EDT / 2020.08.12 1754 UTC
Wind: from the N (350 degrees) at 8 MPH (7 KT) (direction variable):0
Visibility: 10 mile(s):0
Sky conditions: clear
Temperature: 82.9 F (28.3 C)
Dew Point: 64.0 F (17.8 C)
Relative Humidity: 52%
Pressure (altimeter): 30.05 in. Hg (1017 hPa)
Pressure tendency: 0.00 inches (0.1 hPa) higher than three hours ago
ob: KMVL 121754Z AUTO 35007KT 290V010 10SM CLR 28/18 A3005 RMK AO2 SLP174 T02830178 10283 20206 53001
cycle: 18

Station Type Date Time Source
KMVL TAF UTC NOAA

Error!

Example: see airport list